Time;durP1;ratioP1;P1;durP2;ratioP2;P2;SDS_P1;SDS_P2;PMS_P1;PMS_P2;Temp;Humidity;BMP_temperature;BMP_pressure;BME280_temperature;BME280_humidity;BME280_pressure;Samples;Min_cycle;Max_cycle;Signal;HPM_P1;HPM_P2
2020/12/27 00:02:17;;;;;;;3.53;2.55;;;;;;;3.21;95.63;93075.63;5114480;28;20044;-90
2020/12/27 00:04:44;;;;;;;3.00;1.63;;;;;;;3.09;94.89;93074.44;5114667;28;20047;-90
2020/12/27 00:07:12;;;;;;;5.28;1.60;;;;;;;3.07;95.66;93060.16;5114780;28;20043;-90
2020/12/27 00:09:39;;;;;;;1.65;1.50;;;;;;;3.25;95.67;93083.69;5115771;28;20079;-90
2020/12/27 00:12:05;;;;;;;3.08;1.27;;;;;;;3.19;95.74;93080.88;5114664;28;20051;-91
2020/12/27 00:14:32;;;;;;;2.10;1.08;;;;;;;3.38;96.50;93086.47;5114938;28;20047;-92
2020/12/27 00:20:28;;;;;;;4.35;1.52;;;;;;;3.39;95.76;93066.97;5116431;28;20054;-90
2020/12/27 00:22:55;;;;;;;2.30;1.25;;;;;;;3.42;95.88;93066.63;5115752;28;20428;-90
2020/12/27 00:25:21;;;;;;;2.35;1.25;;;;;;;3.44;96.12;93075.66;5115941;28;20477;-90
2020/12/27 00:27:47;;;;;;;1.95;1.00;;;;;;;3.50;95.71;93069.09;5116370;28;20043;-90
2020/12/27 00:30:14;;;;;;;1.85;1.40;;;;;;;3.45;96.03;93067.09;5116072;28;20043;-90
2020/12/27 00:32:40;;;;;;;2.03;1.00;;;;;;;3.53;96.21;93061.16;5115686;28;20070;-90
2020/12/27 00:35:07;;;;;;;;;;;;;;;3.60;96.62;93062.06;5115455;28;20046;-91
2020/12/27 00:37:33;;;;;;;1.45;0.77;;;;;;;3.58;96.18;93060.66;5115979;28;19927;-92
2020/12/27 00:39:59;;;;;;;1.70;1.17;;;;;;;3.60;96.18;93059.50;5115934;28;20040;-91
2020/12/27 00:42:26;;;;;;;3.10;1.80;;;;;;;3.61;95.31;93063.63;5115901;28;20387;-91
2020/12/27 00:44:52;;;;;;;;;;;;;;;3.69;95.48;93061.97;5114786;28;20044;-91
2020/12/27 00:47:19;;;;;;;5.63;1.45;;;;;;;3.60;95.73;93064.59;5114170;28;19920;-92
2020/12/27 00:49:45;;;;;;;2.40;1.48;;;;;;;3.60;95.74;93059.50;5113950;28;20560;-92
2020/12/27 00:52:11;;;;;;;;;;;;;;;3.69;96.24;93072.94;5115459;28;20066;-91
2020/12/27 00:54:38;;;;;;;2.80;1.77;;;;;;;3.34;96.03;93016.69;5116445;28;19919;-91
2020/12/27 00:57:04;;;;;;;;;;;;;;;3.69;96.97;93069.59;5115698;28;20051;-92
2020/12/27 00:59:30;;;;;;;4.35;2.85;;;;;;;3.65;96.56;93065.84;5114987;28;19920;-91
2020/12/27 01:01:57;;;;;;;4.45;2.28;;;;;;;3.69;96.12;93075.47;5115422;28;20039;-92
2020/12/27 01:04:24;;;;;;;3.05;1.77;;;;;;;3.66;96.68;93068.19;5115327;28;20047;-93
2020/12/27 01:06:50;;;;;;;3.90;1.90;;;;;;;3.73;95.96;93066.56;5114767;28;20044;-91
2020/12/27 01:09:16;;;;;;;;;;;;;;;3.74;95.95;93063.06;5115266;28;20047;-92
2020/12/27 01:11:45;;;;;;;3.40;1.25;;;;;;;3.69;96.50;93067.06;5113990;28;19927;-92
2020/12/27 01:14:12;;;;;;;4.70;1.50;;;;;;;3.66;95.97;93065.66;5114478;28;20044;-92
2020/12/27 01:16:38;;;;;;;;;;;;;;;3.75;96.79;93058.75;5113835;28;20051;-95
2020/12/27 01:19:04;;;;;;;1.73;1.10;;;;;;;3.72;97.35;93064.19;5113017;28;19965;-92
2020/12/27 01:21:31;;;;;;;;;;;;;;;3.77;96.96;93053.50;5113987;28;20039;-92
2020/12/27 01:23:58;;;;;;;2.33;1.50;;;;;;;3.69;97.11;93049.28;5114936;28;19924;-92
2020/12/27 01:26:31;;;;;;;9.32;1.73;;;;;;;3.76;96.84;93052.72;5115719;28;20487;-92
2020/12/27 01:28:57;;;;;;;2.30;1.55;;;;;;;3.84;96.67;93041.72;5113211;28;20054;-92
2020/12/27 01:31:25;;;;;;;2.50;1.40;;;;;;;3.92;96.45;93046.72;5113279;28;20044;-93
2020/12/27 01:33:51;;;;;;;4.82;2.38;;;;;;;3.94;96.48;93044.78;5113156;28;20046;-92
2020/12/27 01:36:24;;;;;;;4.20;1.90;;;;;;;3.65;97.11;93032.81;5112820;28;20044;-92
2020/12/27 01:38:52;;;;;;;2.05;1.40;;;;;;;3.63;98.51;93030.44;5113304;28;20055;-92
2020/12/27 01:41:20;;;;;;;3.35;1.70;;;;;;;3.55;98.87;93002.56;5112683;28;20413;-93
2020/12/27 01:44:01;;;;;;;2.63;1.83;;;;;;;3.67;98.38;93023.25;5113128;28;20446;-92
2020/12/27 01:46:28;;;;;;;2.67;1.77;;;;;;;3.79;98.16;93021.88;5112553;28;20044;-94
2020/12/27 01:48:54;;;;;;;8.05;2.70;;;;;;;3.84;98.10;93029.78;5112318;28;20043;-92
2020/12/27 01:51:20;;;;;;;;;;;;;;;3.91;97.88;93019.72;5114766;28;20105;-92
2020/12/27 01:53:47;;;;;;;6.32;2.75;;;;;;;3.90;96.83;93019.88;5113357;28;19920;-93
2020/12/27 01:56:16;;;;;;;;;;;;;;;3.87;97.54;93018.47;5113513;28;20055;-92
2020/12/27 01:58:46;;;;;;;4.97;2.00;;;;;;;3.86;97.36;93016.91;5112948;28;19920;-93
2020/12/27 02:01:13;;;;;;;7.55;3.40;;;;;;;3.91;96.87;93017.19;5112232;28;20055;-94
2020/12/27 02:03:40;;;;;;;4.70;2.15;;;;;;;3.85;97.26;93015.34;5112051;28;20052;-92
2020/12/27 02:06:07;;;;;;;4.80;1.63;;;;;;;3.88;97.02;93025.94;5113126;28;20101;-92
2020/12/27 02:08:35;;;;;;;4.47;1.88;;;;;;;3.80;97.60;93003.13;5113710;28;20044;-91
2020/12/27 02:11:01;;;;;;;3.42;1.60;;;;;;;3.88;97.55;93014.97;5112546;28;20045;-92
2020/12/27 02:13:28;;;;;;;4.32;1.70;;;;;;;3.67;97.95;93006.28;5112572;28;20044;-92
2020/12/27 02:15:55;;;;;;;3.47;1.85;;;;;;;3.46;98.77;93012.00;5114057;28;20055;-91
2020/12/27 02:18:21;;;;;;;;;;;;;;;3.37;99.18;93013.03;5114320;28;20474;-91
2020/12/27 02:20:47;;;;;;;4.30;1.65;;;;;;;3.33;100.00;92999.88;5112669;28;19927;-92
2020/12/27 02:23:15;;;;;;;;;;;;;;;3.26;99.95;92998.97;5113270;28;20048;-92
2020/12/27 02:25:42;;;;;;;4.30;2.45;;;;;;;3.27;100.00;92998.81;5112298;28;19920;-92
2020/12/27 02:28:09;;;;;;;3.42;2.00;;;;;;;3.42;100.00;92996.31;5112443;28;20406;-92
2020/12/27 02:30:35;;;;;;;;;;;;;;;3.57;100.00;93003.97;5112072;28;20051;-93
2020/12/27 02:33:01;;;;;;;3.83;1.92;;;;;;;3.59;100.00;92996.19;5111760;28;19953;-92
2020/12/27 02:35:27;;;;;;;;;;;;;;;3.65;100.00;92997.25;5112889;28;20157;-92
2020/12/27 02:37:53;;;;;;;2.08;1.52;;;;;;;3.60;99.88;92995.22;5112132;28;20392;-92
2020/12/27 02:40:19;;;;;;;;;;;;;;;3.40;100.00;92990.63;5112674;28;20051;-93
2020/12/27 02:42:46;;;;;;;4.28;2.83;;;;;;;3.07;100.00;92983.25;5111810;28;19919;-91
2020/12/27 02:45:13;;;;;;;2.72;1.67;;;;;;;3.13;100.00;92997.78;5112069;28;20051;-93
2020/12/27 02:47:39;;;;;;;;;;;;;;;3.30;100.00;92990.06;5112539;28;20059;-92
2020/12/27 02:50:12;;;;;;;2.30;1.50;;;;;;;2.74;100.00;92963.16;5112125;28;20259;-92
2020/12/27 02:52:39;;;;;;;2.13;1.50;;;;;;;2.46;100.00;92987.19;5111816;28;20039;-94
2020/12/27 02:55:06;;;;;;;4.57;2.10;;;;;;;2.75;100.00;92990.88;5111519;28;20074;-92
2020/12/27 02:57:33;;;;;;;4.43;1.95;;;;;;;2.48;100.00;92980.25;5112164;28;20066;-91
2020/12/27 03:00:00;;;;;;;3.70;2.05;;;;;;;2.23;100.00;92954.19;5112026;28;20066;-92
2020/12/27 03:02:26;;;;;;;3.00;1.67;;;;;;;2.53;100.00;92967.84;5116821;28;20047;-91
2020/12/27 03:04:53;;;;;;;4.00;1.83;;;;;;;2.71;100.00;92987.09;5116002;28;20047;-91
2020/12/27 03:07:19;;;;;;;4.75;2.45;;;;;;;2.78;100.00;92992.31;5116386;28;20048;-91
2020/12/27 03:09:45;;;;;;;4.25;2.75;;;;;;;2.78;100.00;92994.84;5117786;28;20051;-92
2020/12/27 03:12:11;;;;;;;5.38;2.90;;;;;;;2.61;100.00;92997.47;5116605;28;20043;-92
2020/12/27 03:14:38;;;;;;;3.97;2.47;;;;;;;2.25;100.00;92995.38;5117433;28;20397;-93
2020/12/27 03:17:05;;;;;;;6.18;3.25;;;;;;;2.39;100.00;92989.63;5115333;28;20402;-92
2020/12/27 03:19:31;;;;;;;7.38;4.03;;;;;;;2.08;100.00;92995.41;5116778;28;20048;-93
2020/12/27 03:21:57;;;;;;;;;;;;;;;1.99;100.00;92986.28;5115779;28;20101;-92
2020/12/27 03:24:23;;;;;;;7.05;3.60;;;;;;;2.07;100.00;92991.31;5115056;28;19920;-93
2020/12/27 03:26:49;;;;;;;;;;;;;;;2.12;100.00;92983.22;5115652;28;20051;-93
2020/12/27 03:29:15;;;;;;;4.47;2.67;;;;;;;2.13;100.00;92987.34;5115246;28;19924;-93
2020/12/27 03:31:41;;;;;;;;;;;;;;;2.29;100.00;92990.75;5115120;28;20044;-93
2020/12/27 03:34:09;;;;;;;6.03;3.45;;;;;;;2.24;100.00;92979.38;5114973;28;19920;-92
2020/12/27 03:36:35;;;;;;;8.55;3.63;;;;;;;2.35;100.00;92973.16;5114450;28;20104;-93
2020/12/27 03:39:01;;;;;;;;;;;;;;;2.44;100.00;92948.56;5114818;28;20048;-93
2020/12/27 03:41:27;;;;;;;6.72;3.50;;;;;;;2.64;100.00;92969.22;5114505;28;20412;-93
2020/12/27 03:43:53;;;;;;;;;;;;;;;2.80;100.00;92967.56;5114939;28;20043;-93
2020/12/27 03:46:20;;;;;;;7.72;3.63;;;;;;;2.93;100.00;92959.38;5114271;28;19919;-93
2020/12/27 03:48:46;;;;;;;;;;;;;;;3.02;100.00;92958.34;5114800;28;20047;-92
2020/12/27 03:51:13;;;;;;;5.90;4.13;;;;;;;3.14;100.00;92968.13;5114273;28;20316;-92
2020/12/27 03:53:40;;;;;;;11.18;4.25;;;;;;;3.23;100.00;92961.25;5114044;28;20048;-94
2020/12/27 03:56:06;;;;;;;6.80;3.67;;;;;;;3.41;100.00;92973.63;5113939;28;20096;-94
2020/12/27 03:58:32;;;;;;;9.27;4.43;;;;;;;3.52;100.00;92974.97;5114005;28;20051;-93
2020/12/27 04:00:58;;;;;;;;;;;;;;;3.62;100.00;92975.53;5114310;28;20089;-93
2020/12/27 04:03:25;;;;;;;2.85;1.90;;;;;;;3.58;100.00;92969.22;5113995;28;19919;-92
2020/12/27 04:05:51;;;;;;;4.55;2.33;;;;;;;3.55;100.00;92975.41;5114137;28;20055;-92
2020/12/27 04:08:18;;;;;;;;;;;;;;;3.41;100.00;92974.41;5114493;28;20089;-92
2020/12/27 04:10:44;;;;;;;3.20;1.92;;;;;;;3.31;100.00;92968.78;5113691;28;19931;-94
2020/12/27 04:13:10;;;;;;;;;;;;;;;3.37;100.00;92978.25;5113615;28;20134;-94
2020/12/27 04:15:37;;;;;;;8.18;3.33;;;;;;;3.46;100.00;92981.53;5113638;28;19926;-92
2020/12/27 04:18:03;;;;;;;7.60;3.38;;;;;;;3.52;100.00;92969.91;5113815;28;20058;-92
2020/12/27 04:20:29;;;;;;;;;;;;;;;3.55;100.00;92967.81;5114211;28;20051;-93
2020/12/27 04:22:56;;;;;;;4.55;3.17;;;;;;;3.55;100.00;92967.81;5113783;28;19920;-92
2020/12/27 04:25:23;;;;;;;;;;;;;;;3.58;100.00;92964.13;5114152;28;20052;-93
2020/12/27 04:27:49;;;;;;;5.28;3.00;;;;;;;3.55;100.00;92960.19;5113471;28;20358;-92
2020/12/27 04:30:15;;;;;;;;;;;;;;;3.53;100.00;92949.41;5113966;28;20101;-92
2020/12/27 04:32:42;;;;;;;10.93;4.80;;;;;;;3.07;100.00;92958.63;5114625;28;19919;-90
2020/12/27 04:35:08;;;;;;;10.25;5.72;;;;;;;3.23;100.00;92962.03;5114034;28;20051;-92
2020/12/27 04:37:34;;;;;;;19.38;8.75;;;;;;;3.02;100.00;92939.81;5113819;28;20047;-92
2020/12/27 04:40:00;;;;;;;;;;;;;;;3.02;100.00;92963.44;5115945;28;20078;-92
2020/12/27 04:42:28;;;;;;;11.20;5.65;;;;;;;3.01;100.00;92961.09;5115313;28;19924;-93
2020/12/27 04:44:55;;;;;;;10.82;3.53;;;;;;;3.03;100.00;92959.97;5113560;28;20520;-91
2020/12/27 04:47:25;;;;;;;3.58;2.13;;;;;;;2.90;100.00;92954.63;5113615;28;20413;-93
2020/12/27 04:49:52;;;;;;;4.95;3.35;;;;;;;2.79;100.00;92956.59;5113223;28;20062;-93
2020/12/27 04:52:21;;;;;;;12.75;2.88;;;;;;;2.93;100.00;92962.69;5113070;28;20047;-92
2020/12/27 04:54:51;;;;;;;6.95;2.88;;;;;;;3.18;100.00;92964.28;5100518;28;20059;-92
2020/12/27 04:57:18;;;;;;;5.47;2.33;;;;;;;3.35;100.00;92959.88;5092506;28;20040;-92
2020/12/27 04:59:48;;;;;;;4.75;2.95;;;;;;;3.36;100.00;92958.91;5092736;28;20127;-92
2020/12/27 05:02:15;;;;;;;5.65;3.15;;;;;;;3.36;100.00;92950.50;5094967;28;20098;-91
2020/12/27 05:04:44;;;;;;;5.38;3.53;;;;;;;3.45;100.00;92936.78;5093895;28;20415;-91
2020/12/27 05:07:16;;;;;;;8.80;4.90;;;;;;;3.49;100.00;92930.41;5093150;28;20483;-91
2020/12/27 05:09:42;;;;;;;9.05;4.80;;;;;;;3.41;100.00;92938.88;5095152;28;20048;-91
2020/12/27 05:12:10;;;;;;;;;;;;;;;3.18;100.00;92936.34;5095075;28;20048;-92
2020/12/27 05:14:37;;;;;;;9.48;5.18;;;;;;;2.93;100.00;92926.41;5093968;28;20370;-91
2020/12/27 05:17:04;;;;;;;8.05;5.00;;;;;;;2.81;100.00;92918.38;5113825;27;20051;-91
2020/12/27 05:19:32;;;;;;;8.93;5.00;;;;;;;2.74;100.00;92915.72;5117267;27;20039;-91
2020/12/27 05:22:08;;;;;;;12.57;4.95;;;;;;;2.81;100.00;92920.94;5108904;27;20164;-91
2020/12/27 05:24:35;;;;;;;8.63;4.85;;;;;;;2.88;100.00;92911.66;5100051;27;20054;-91
2020/12/27 05:27:01;;;;;;;9.50;4.85;;;;;;;2.86;100.00;92906.00;5094198;28;20554;-90
2020/12/27 05:29:32;;;;;;;;;;;;;;;2.92;100.00;92907.06;5097362;28;20044;-89
2020/12/27 05:32:00;;;;;;;9.13;4.95;;;;;;;2.85;100.00;92914.56;5099568;27;20310;-91
2020/12/27 05:34:28;;;;;;;9.88;4.07;;;;;;;2.92;100.00;92924.84;5106615;27;20131;-89
2020/12/27 05:36:58;;;;;;;9.02;4.88;;;;;;;2.94;100.00;92918.63;5092147;28;20048;-93
2020/12/27 05:39:26;;;;;;;11.52;4.32;;;;;;;2.94;100.00;92910.22;5102445;27;20072;-88
2020/12/27 05:41:57;;;;;;;7.30;3.95;;;;;;;2.99;100.00;92913.03;5105444;28;20047;-89
2020/12/27 05:44:23;;;;;;;6.18;2.97;;;;;;;2.81;100.00;92915.84;5129400;27;20080;-88
2020/12/27 05:46:50;;;;;;;5.45;3.22;;;;;;;2.88;100.00;92910.91;5135031;27;20539;-89
2020/12/27 05:49:17;;;;;;;10.02;5.15;;;;;;;2.73;100.00;92909.09;5099210;27;20414;-91
2020/12/27 05:51:52;;;;;;;6.90;4.47;;;;;;;2.60;100.00;92919.78;5114480;28;20051;-93
2020/12/27 05:54:31;;;;;;;26.13;13.98;;;;;;;2.51;100.00;92913.97;5112844;28;20044;-91
2020/12/27 05:57:00;;;;;;;16.15;10.38;;;;;;;2.65;100.00;92911.69;5111704;28;20490;-92
2020/12/27 05:59:31;;;;;;;12.27;6.38;;;;;;;2.79;100.00;92897.50;5111802;28;20062;-92
2020/12/27 06:01:59;;;;;;;8.73;6.10;;;;;;;3.06;100.00;92913.94;5112677;28;20054;-91
2020/12/27 06:05:05;;;;;;;10.82;5.60;;;;;;;3.03;100.00;92905.88;5112746;28;20055;-92
2020/12/27 06:07:57;;;;;;;10.48;5.57;;;;;;;3.00;100.00;92909.53;5106417;28;20044;-92
2020/12/27 06:10:40;;;;;;;12.38;3.97;;;;;;;3.11;100.00;92915.97;5102424;28;20044;-93
2020/12/27 06:14:01;;;;;;;11.23;5.13;;;;;;;3.03;100.00;92916.81;5112011;28;20036;-92
2020/12/27 06:16:40;;;;;;;9.68;4.38;;;;;;;3.34;100.00;92925.31;5112475;28;20055;-93
2020/12/27 06:19:24;;;;;;;12.93;7.03;;;;;;;3.49;100.00;92920.25;5111971;28;20047;-92
2020/12/27 06:22:03;;;;;;;12.88;5.88;;;;;;;3.57;100.00;92934.63;5111933;28;20047;-93
2020/12/27 06:24:31;;;;;;;17.02;8.25;;;;;;;3.64;100.00;92920.25;5112242;28;20054;-91
2020/12/27 06:26:58;;;;;;;10.65;5.68;;;;;;;3.26;100.00;92922.81;5112653;28;20062;-90
2020/12/27 06:29:29;;;;;;;8.27;4.78;;;;;;;3.19;100.00;92917.63;5113960;28;20544;-91
2020/12/27 06:31:58;;;;;;;10.13;5.22;;;;;;;3.04;100.00;92925.19;5112105;28;20039;-92
2020/12/27 06:34:24;;;;;;;16.80;8.13;;;;;;;3.29;100.00;92945.34;5111497;28;20055;-94
2020/12/27 06:36:51;;;;;;;;;;;;;;;3.50;100.00;92936.25;5114690;28;20097;-93
2020/12/27 06:39:24;;;;;;;15.05;5.75;;;;;;;3.61;100.00;92943.44;5115671;28;20348;-91
2020/12/27 06:42:08;;;;;;;8.95;4.95;;;;;;;3.67;100.00;92937.69;5116051;28;20092;-92
2020/12/27 06:44:45;;;;;;;13.13;6.95;;;;;;;3.84;100.00;92940.84;5116233;28;20043;-92
2020/12/27 06:47:12;;;;;;;10.35;5.72;;;;;;;3.68;100.00;92921.50;5121122;27;20039;-91
2020/12/27 06:49:38;;;;;;;8.95;5.80;;;;;;;3.26;100.00;92900.78;5136331;27;20542;-92
2020/12/27 06:52:21;;;;;;;17.33;9.15;;;;;;;3.16;100.00;92921.28;5136528;27;20095;-91
2020/12/27 06:54:49;;;;;;;12.20;7.35;;;;;;;3.38;100.00;92923.19;5136476;27;20049;-91
2020/12/27 06:57:43;;;;;;;18.40;9.07;;;;;;;3.54;100.00;92910.34;5136001;27;20053;-91
2020/12/27 07:00:23;;;;;;;16.83;9.00;;;;;;;3.27;100.00;92920.13;5135985;27;20052;-92
2020/12/27 07:03:06;;;;;;;21.85;9.20;;;;;;;3.52;100.00;92919.88;5135735;27;20043;-92
2020/12/27 07:05:34;;;;;;;20.83;10.15;;;;;;;3.76;100.00;92950.31;5135658;27;20100;-92
2020/12/27 07:08:02;;;;;;;25.58;11.52;;;;;;;3.92;100.00;92956.97;5135719;27;20058;-91
2020/12/27 07:10:30;;;;;;;17.63;9.43;;;;;;;3.68;100.00;92918.16;5113186;27;20059;-91
2020/12/27 07:13:06;;;;;;;13.25;7.40;;;;;;;3.63;100.00;92933.13;5095123;28;20044;-90
2020/12/27 07:15:33;;;;;;;11.73;6.15;;;;;;;3.83;100.00;92948.63;5095417;28;20051;-91
2020/12/27 07:18:08;;;;;;;12.32;8.35;;;;;;;3.55;100.00;92934.78;5095378;28;20055;-91
2020/12/27 07:20:35;;;;;;;17.77;7.63;;;;;;;3.51;100.00;92928.47;5096403;28;20112;-91
2020/12/27 07:23:11;;;;;;;16.90;6.97;;;;;;;3.46;100.00;92930.72;5119735;28;20054;-91
2020/12/27 07:25:45;;;;;;;15.20;7.85;;;;;;;3.79;100.00;92939.81;5116093;28;20082;-91
2020/12/27 07:28:13;;;;;;;27.25;12.23;;;;;;;4.00;100.00;92936.56;5115467;28;20055;-91
2020/12/27 07:30:40;;;;;;;15.02;9.70;;;;;;;4.05;100.00;92926.66;5115755;28;20507;-90
2020/12/27 07:33:10;;;;;;;19.73;10.07;;;;;;;4.12;100.00;92926.75;5116233;28;20131;-92
2020/12/27 07:35:36;;;;;;;15.90;8.30;;;;;;;4.23;100.00;92903.41;5117760;28;20085;-92
2020/12/27 07:38:06;;;;;;;16.83;7.97;;;;;;;4.34;100.00;92919.97;5116061;28;20489;-93
2020/12/27 07:40:34;;;;;;;18.00;9.80;;;;;;;4.45;100.00;92926.34;5116740;28;20050;-91
2020/12/27 07:43:02;;;;;;;16.38;9.18;;;;;;;4.53;100.00;92920.34;5114810;28;20505;-93
2020/12/27 07:45:29;;;;;;;17.15;9.80;;;;;;;4.56;100.00;92927.63;5114596;28;20486;-91
2020/12/27 07:47:55;;;;;;;13.60;8.90;;;;;;;4.65;100.00;92928.31;5103765;28;20048;-92
2020/12/27 07:50:22;;;;;;;;;;;;;;;4.62;100.00;92936.28;5111879;28;20055;-91
2020/12/27 07:52:53;;;;;;;16.23;7.95;;;;;;;4.61;100.00;92944.88;5116652;28;19926;-91
2020/12/27 07:55:24;;;;;;;17.15;9.25;;;;;;;4.61;100.00;92932.97;5116029;28;20101;-92
2020/12/27 07:57:50;;;;;;;12.32;7.13;;;;;;;4.48;100.00;92928.53;5114685;28;20047;-90
2020/12/27 08:00:25;;;;;;;10.65;6.88;;;;;;;4.46;100.00;92904.22;5114899;28;20071;-92
2020/12/27 08:02:52;;;;;;;13.38;6.95;;;;;;;4.38;100.00;92930.56;5114226;28;20062;-92
2020/12/27 08:05:19;;;;;;;12.15;8.20;;;;;;;4.51;100.00;92938.34;5114643;28;20055;-91
2020/12/27 08:07:45;;;;;;;10.70;6.10;;;;;;;4.70;100.00;92938.75;5115110;28;20051;-91
2020/12/27 08:10:20;;;;;;;18.40;7.30;;;;;;;4.72;100.00;92925.84;5116172;28;20048;-92
2020/12/27 08:12:56;;;;;;;16.42;9.20;;;;;;;4.65;100.00;92933.41;5116348;28;20058;-91
2020/12/27 08:15:24;;;;;;;14.52;8.23;;;;;;;4.38;100.00;92939.00;5114797;28;20048;-91
2020/12/27 08:17:56;;;;;;;12.18;6.82;;;;;;;4.51;100.00;92942.63;5115232;28;20073;-92
2020/12/27 08:20:23;;;;;;;12.10;7.15;;;;;;;4.67;100.00;92929.72;5115863;28;20096;-90
2020/12/27 08:23:05;;;;;;;15.68;7.75;;;;;;;4.40;100.00;92909.06;5115764;27;20441;-91
2020/12/27 08:25:32;;;;;;;11.20;6.07;;;;;;;4.52;100.00;92911.94;5115016;28;20477;-91
2020/12/27 08:28:00;;;;;;;14.45;7.22;;;;;;;4.36;100.00;92914.69;5116784;28;20470;-91
2020/12/27 08:30:53;;;;;;;15.90;8.10;;;;;;;4.40;100.00;92910.84;5116978;28;20043;-91
2020/12/27 08:40:16;;;;;;;12.27;7.88;;;;;;;4.90;100.00;92902.50;5116274;28;20044;-91
2020/12/27 08:46:07;;;;;;;12.40;7.05;;;;;;;4.38;100.00;92870.31;5115696;28;20152;-92
2020/12/27 08:48:36;;;;;;;12.73;7.53;;;;;;;4.70;100.00;92920.13;5131731;27;20055;-90
2020/12/27 08:51:04;;;;;;;17.20;9.82;;;;;;;4.90;100.00;92910.94;5125449;27;20156;-91
2020/12/27 08:53:43;;;;;;;18.42;8.02;;;;;;;5.04;100.00;92914.38;5116229;28;20044;-91
2020/12/27 08:56:11;;;;;;;98.28;46.13;;;;;;;5.14;100.00;92920.94;5115530;28;20051;-92
2020/12/27 08:58:38;;;;;;;39.72;21.52;;;;;;;5.31;100.00;92926.53;5115615;28;20039;-91
2020/12/27 09:01:20;;;;;;;22.38;10.18;;;;;;;5.36;100.00;92921.69;5115040;28;20059;-91
2020/12/27 09:03:47;;;;;;;17.00;7.43;;;;;;;5.31;100.00;92924.00;5115173;28;20474;-91
2020/12/27 09:06:13;;;;;;;12.05;5.72;;;;;;;5.42;100.00;92890.38;5115025;28;20059;-91
2020/12/27 09:08:40;;;;;;;32.63;14.07;;;;;;;4.97;100.00;92870.28;5114293;28;20093;-90
2020/12/27 09:11:06;;;;;;;;;;;;;;;5.06;100.00;92866.59;5114650;28;20047;-91
2020/12/27 09:13:37;;;;;;;19.80;10.07;;;;;;;5.11;100.00;92858.44;5113770;28;19920;-91
2020/12/27 09:16:03;;;;;;;17.52;9.20;;;;;;;5.23;100.00;92853.59;5113674;28;20543;-91
2020/12/27 09:18:31;;;;;;;15.68;7.50;;;;;;;5.32;100.00;92849.97;5113868;28;20040;-91
2020/12/27 09:20:58;;;;;;;15.60;8.55;;;;;;;5.32;100.00;92844.09;5113334;28;20501;-91
2020/12/27 09:23:25;;;;;;;16.88;8.73;;;;;;;5.16;100.00;92805.22;5113373;28;20138;-92
2020/12/27 09:26:04;;;;;;;13.73;7.35;;;;;;;5.14;100.00;92779.13;5113526;28;20048;-92
2020/12/27 09:28:32;;;;;;;16.77;8.75;;;;;;;5.53;100.00;92850.88;5113352;28;20043;-91
2020/12/27 09:31:01;;;;;;;48.45;19.92;;;;;;;5.68;100.00;92855.84;5113412;28;20048;-91
2020/12/27 09:33:29;;;;;;;27.02;14.70;;;;;;;5.80;100.00;92833.19;5113350;28;20048;-91
2020/12/27 09:35:56;;;;;;;30.50;15.25;;;;;;;5.91;100.00;92839.50;5094466;28;20509;-92
2020/12/27 09:38:23;;;;;;;25.42;11.73;;;;;;;5.93;100.00;92822.22;5093028;28;20425;-91
2020/12/27 09:41:05;;;;;;;21.77;11.05;;;;;;;6.03;100.00;92821.94;5100379;27;20403;-91
2020/12/27 09:43:32;;;;;;;25.02;11.45;;;;;;;6.10;100.00;92827.81;5100785;28;20481;-91
2020/12/27 09:45:58;;;;;;;21.63;10.07;;;;;;;6.12;100.00;92828.41;5112570;28;20047;-91
2020/12/27 09:48:31;;;;;;;;;;;;;;;6.17;100.00;92824.50;5128268;27;20050;-92
2020/12/27 09:50:58;;;;;;;31.73;13.50;;;;;;;6.13;100.00;92813.91;5133346;27;19919;-92
2020/12/27 09:53:24;;;;;;;;;;;;;;;6.22;100.00;92814.53;5133613;27;20039;-93
2020/12/27 09:55:50;;;;;;;25.48;10.82;;;;;;;6.20;100.00;92809.59;5133509;27;19919;-91
2020/12/27 09:58:16;;;;;;;;;;;;;;;6.21;100.00;92800.97;5131376;27;20413;-91
2020/12/27 10:00:42;;;;;;;16.58;8.85;;;;;;;6.09;100.00;92803.31;5111862;28;19919;-90
2020/12/27 10:03:08;;;;;;;;;;;;;;;6.12;100.00;92794.50;5112515;28;20040;-92
2020/12/27 10:05:36;;;;;;;19.27;11.77;;;;;;;6.07;100.00;92772.09;5115649;28;19928;-88
2020/12/27 10:08:02;;;;;;;16.58;9.73;;;;;;;6.18;100.00;92782.72;5113592;28;20067;-91
2020/12/27 10:10:28;;;;;;;11.63;6.50;;;;;;;6.05;100.00;92778.38;5111386;28;20055;-91
2020/12/27 10:12:54;;;;;;;8.55;5.25;;;;;;;5.91;100.00;92768.13;5112017;28;20054;-90
2020/12/27 10:15:21;;;;;;;12.35;6.72;;;;;;;5.75;100.00;92762.38;5111847;28;20052;-89
2020/12/27 10:17:47;;;;;;;;;;;;;;;5.55;100.00;92756.44;5112129;28;20089;-90
2020/12/27 10:20:13;;;;;;;9.73;5.28;;;;;;;5.28;100.00;92751.97;5111340;28;19919;-90
2020/12/27 10:22:40;;;;;;;;;;;;;;;5.15;100.00;92752.72;5114862;28;20051;-91
2020/12/27 10:25:07;;;;;;;10.23;7.38;;;;;;;4.99;100.00;92735.19;5114322;28;19920;-90
2020/12/27 10:27:35;;;;;;;8.98;5.15;;;;;;;5.30;100.00;92739.88;5115681;28;20060;-90
2020/12/27 10:30:02;;;;;;;10.80;5.57;;;;;;;5.59;100.00;92744.88;5113912;28;20117;-91
2020/12/27 10:32:28;;;;;;;12.45;6.40;;;;;;;5.74;100.00;92740.41;5114911;28;20188;-90
2020/12/27 10:34:54;;;;;;;;;;;;;;;5.95;100.00;92748.91;5116480;28;20043;-91
2020/12/27 10:37:20;;;;;;;11.23;6.57;;;;;;;6.03;100.00;92752.28;5116151;28;19920;-91
2020/12/27 10:39:48;;;;;;;;;;;;;;;6.14;100.00;92732.13;5114269;28;20044;-91
2020/12/27 10:42:15;;;;;;;17.30;7.50;;;;;;;5.88;100.00;92695.34;5112528;28;19919;-91
2020/12/27 10:44:41;;;;;;;;;;;;;;;5.81;100.00;92684.38;5112829;28;20482;-89
2020/12/27 10:47:08;;;;;;;13.50;5.65;;;;;;;5.91;100.00;92673.78;5107852;28;19920;-90
2020/12/27 10:49:34;;;;;;;9.65;5.60;;;;;;;5.62;100.00;92673.91;5099379;28;20566;-90
2020/12/27 10:52:03;;;;;;;10.63;5.95;;;;;;;5.88;100.00;92649.47;5112938;28;20096;-92
2020/12/27 10:54:29;;;;;;;8.07;5.18;;;;;;;6.12;100.00;92649.91;5112721;28;20043;-91
2020/12/27 10:56:56;;;;;;;;;;;;;;;6.04;100.00;92636.56;5112196;28;20058;-90
2020/12/27 10:59:22;;;;;;;10.02;5.38;;;;;;;6.15;100.00;92634.22;5112314;28;19927;-91
2020/12/27 11:01:49;;;;;;;;;;;;;;;6.44;100.00;92658.75;5112292;28;20126;-91
2020/12/27 11:04:15;;;;;;;7.57;3.55;;;;;;;6.47;100.00;92646.38;5111578;28;19920;-90
2020/12/27 11:06:42;;;;;;;11.43;6.50;;;;;;;6.64;100.00;92649.31;5111557;28;20413;-90
2020/12/27 11:09:08;;;;;;;8.80;6.65;;;;;;;6.81;100.00;92638.66;5111460;28;20048;-90
2020/12/27 11:11:36;;;;;;;11.27;5.57;;;;;;;7.00;100.00;92641.38;5091316;28;20044;-90
2020/12/27 11:14:04;;;;;;;5.70;3.45;;;;;;;6.91;100.00;92638.25;5091468;28;20409;-91
2020/12/27 11:16:31;;;;;;;6.18;3.78;;;;;;;6.64;100.00;92635.75;5104355;28;20073;-91
2020/12/27 11:18:59;;;;;;;5.78;3.08;;;;;;;6.30;100.00;92635.00;5111923;28;20075;-90
2020/12/27 11:21:25;;;;;;;5.47;3.55;;;;;;;6.21;100.00;92625.00;5111680;28;20063;-92
2020/12/27 11:23:51;;;;;;;7.75;3.35;;;;;;;6.25;100.00;92607.56;5120062;28;20048;-91
2020/12/27 11:26:20;;;;;;;;;;;;;;;6.53;100.00;92599.66;5118240;28;20474;-94
2020/12/27 11:28:47;;;;;;;6.47;3.83;;;;;;;6.63;100.00;92593.34;5123847;28;19924;-94
2020/12/27 11:31:29;;;;;;;9.95;5.00;;;;;;;6.56;100.00;92583.16;5124032;28;20043;-95
2020/12/27 11:33:55;;;;;;;6.68;3.22;;;;;;;6.65;100.00;92583.72;5124769;28;20064;-93
2020/12/27 11:36:21;;;;;;;;;;;;;;;6.85;100.00;92575.22;5124457;28;20047;-92
2020/12/27 11:38:48;;;;;;;7.40;4.85;;;;;;;6.95;100.00;92580.69;5124298;28;19919;-91
2020/12/27 11:41:16;;;;;;;9.57;5.43;;;;;;;7.06;100.00;92563.94;5123991;28;20058;-90
2020/12/27 11:43:43;;;;;;;10.25;6.10;;;;;;;7.22;100.00;92565.22;5122790;28;20051;-90
2020/12/27 11:46:09;;;;;;;12.57;5.53;;;;;;;7.37;100.00;92559.06;5126311;28;20547;-93
2020/12/27 11:48:37;;;;;;;6.30;4.35;;;;;;;7.19;100.00;92556.19;5138348;27;20047;-89
2020/12/27 11:51:04;;;;;;;10.73;5.07;;;;;;;7.43;100.00;92543.72;5135962;27;20039;-89
2020/12/27 11:53:30;;;;;;;;;;;;;;;7.58;99.99;92543.41;5135646;27;20050;-89
2020/12/27 11:55:56;;;;;;;6.72;4.18;;;;;;;7.27;99.69;92539.09;5134672;27;19923;-90
2020/12/27 11:58:22;;;;;;;10.73;6.25;;;;;;;7.40;99.29;92516.00;5134919;27;20055;-90
2020/12/27 12:00:48;;;;;;;;;;;;;;;7.54;99.08;92516.69;5135442;27;20047;-89
2020/12/27 12:03:17;;;;;;;8.57;4.80;;;;;;;7.32;100.00;92504.25;5134561;27;19980;-90